Mississippi River (Missouri), New Madrid (07024175)

StateMissouriLatestUnknown (403000 cfs)
RiverMississippi RiverRatingObservedEstimated
Updated2020-08-11 19:00 (1 hour ago)Flood - The river is flooding. Obstacles can be treacherous or deadly. The river should be avoided at this stage for casual trips and definitely for the inexperienced. Trips should be attempted only with protective gear and equipment.Flood(none)(none)
Discharge403000 cfs (median: 388000 cfs)High - The river is high and potentially dangerous, especially for the young and / or inexperienced. Normal stream obstacles are sometimes difficult to navigate. Extended distances can be attempted, but canoe travel may not be advisable.High(none)(none)
Height13.7 feetGood - Conditions are ideal for a canoe or kayak. Boats typically will drag on fewer than one-quarter of riffles, if at all, and portages are unnecessary or rare. Normal float lengths can be attempted without a problem.Good(none)(none)
TrendRising (rising over 24 hours)Low - River is low but can still be floated. Some riffles are okay but most come with significant dragging and might need a portage. Float lengths should be reduced to accommodate low flow, dragging, and portages.Low(none)(none)
USGSExternal icon USGS Site (External icon Google Maps)Poor - River is too low to float comfortably. Most or all riffles will drag or must be portaged and some obstacles (such as slick shelf rock) cause undue problems. Avoid the river at this stage for casual paddling trips.Poor(none)(none)

Trending Data

Plot Image

Trips for Mississippi River (Missouri), New Madrid (07024175)

DateStartEndDistanceConditionDischargeHeightFishingDetails

A total of 0 rows are displayed.

Condition Descriptions

Fishing Conditions

Fish Species

Notes

Classic Trip List

The classic River Trips application is still available for use. It is updated with the new system using a data retrofit. It is no longer maintained. The original River Trips application is no longer updated (as of 1 Dec 2016) but can be checked for errors or for the condition of the data before it was converted to the new system.

Gauge Data Table

ObservationHeightDischargeMaximum
Discharge
Minimum
Discharge
Mean
Discharge
P05P10P20P25P50
(Median)
P75P80P90P95
2020-08-11 19:00 13.70 403000 476000 (2019) 318000 (2017) 392000 318000 324000 388000 465000 476000
2020-08-11 18:00 13.67 402000 476000 (2019) 318000 (2017) 392000 318000 324000 388000 465000 476000
2020-08-11 17:00 13.72 403000 476000 (2019) 318000 (2017) 392000 318000 324000 388000 465000 476000
2020-08-11 16:00 13.52 399000 476000 (2019) 318000 (2017) 392000 318000 324000 388000 465000 476000
2020-08-11 15:00 13.64 401000 476000 (2019) 318000 (2017) 392000 318000 324000 388000 465000 476000
2020-08-11 14:00 13.60 400000 476000 (2019) 318000 (2017) 392000 318000 324000 388000 465000 476000
2020-08-11 13:00 13.60 400000 476000 (2019) 318000 (2017) 392000 318000 324000 388000 465000 476000
2020-08-11 12:00 13.58 400000 476000 (2019) 318000 (2017) 392000 318000 324000 388000 465000 476000
2020-08-11 11:00 13.54 399000 476000 (2019) 318000 (2017) 392000 318000 324000 388000 465000 476000
2020-08-11 10:00 13.50 398000 476000 (2019) 318000 (2017) 392000 318000 324000 388000 465000 476000
2020-08-11 09:00 13.43 397000 476000 (2019) 318000 (2017) 392000 318000 324000 388000 465000 476000
2020-08-11 08:00 13.42 396000 476000 (2019) 318000 (2017) 392000 318000 324000 388000 465000 476000
2020-08-11 07:00 13.38 396000 476000 (2019) 318000 (2017) 392000 318000 324000 388000 465000 476000
2020-08-11 06:00 13.35 395000 476000 (2019) 318000 (2017) 392000 318000 324000 388000 465000 476000
2020-08-11 05:00 13.32 394000 476000 (2019) 318000 (2017) 392000 318000 324000 388000 465000 476000
2020-08-11 04:00 13.28 393000 476000 (2019) 318000 (2017) 392000 318000 324000 388000 465000 476000
2020-08-11 03:00 13.20 392000 476000 (2019) 318000 (2017) 392000 318000 324000 388000 465000 476000
2020-08-11 02:00 13.22 392000 476000 (2019) 318000 (2017) 392000 318000 324000 388000 465000 476000
2020-08-11 01:00 13.16 391000 476000 (2019) 318000 (2017) 392000 318000 324000 388000 465000 476000
2020-08-11 00:00 12.85 384000 476000 (2019) 318000 (2017) 392000 318000 324000 388000 465000 476000
2020-08-10 23:00 12.69 380000 481000 (2019) 316000 (2017) 403000 316000 326000 407000 475000 481000
2020-08-10 22:00 12.84 384000 481000 (2019) 316000 (2017) 403000 316000 326000 407000 475000 481000
2020-08-10 21:00 12.95 386000 481000 (2019) 316000 (2017) 403000 316000 326000 407000 475000 481000
2020-08-10 20:00 12.93 386000 481000 (2019) 316000 (2017) 403000 316000 326000 407000 475000 481000
2020-08-10 19:00 12.81 383000 481000 (2019) 316000 (2017) 403000 316000 326000 407000 475000 481000
2020-08-10 18:00 12.62 379000 481000 (2019) 316000 (2017) 403000 316000 326000 407000 475000 481000
2020-08-10 17:00 12.29 372000 481000 (2019) 316000 (2017) 403000 316000 326000 407000 475000 481000
2020-08-10 16:00 12.66 380000 481000 (2019) 316000 (2017) 403000 316000 326000 407000 475000 481000
2020-08-10 15:00 12.70 381000 481000 (2019) 316000 (2017) 403000 316000 326000 407000 475000 481000
2020-08-10 14:00 12.30 372000 481000 (2019) 316000 (2017) 403000 316000 326000 407000 475000 481000
2020-08-10 13:00 12.19 370000 481000 (2019) 316000 (2017) 403000 316000 326000 407000 475000 481000
2020-08-10 12:00 12.52 377000 481000 (2019) 316000 (2017) 403000 316000 326000 407000 475000 481000
2020-08-10 11:00 12.56 378000 481000 (2019) 316000 (2017) 403000 316000 326000 407000 475000 481000
2020-08-10 10:00 12.58 378000 481000 (2019) 316000 (2017) 403000 316000 326000 407000 475000 481000
2020-08-10 09:00 12.63 379000 481000 (2019) 316000 (2017) 403000 316000 326000 407000 475000 481000
2020-08-10 08:00 12.65 380000 481000 (2019) 316000 (2017) 403000 316000 326000 407000 475000 481000
2020-08-10 07:00 12.68 380000 481000 (2019) 316000 (2017) 403000 316000 326000 407000 475000 481000
2020-08-10 06:00 12.65 380000 481000 (2019) 316000 (2017) 403000 316000 326000 407000 475000 481000
2020-08-10 05:00 12.71 381000 481000 (2019) 316000 (2017) 403000 316000 326000 407000 475000 481000
2020-08-10 04:00 12.72 381000 481000 (2019) 316000 (2017) 403000 316000 326000 407000 475000 481000
2020-08-10 03:00 12.72 381000 481000 (2019) 316000 (2017) 403000 316000 326000 407000 475000 481000
2020-08-10 02:00 12.73 381000 481000 (2019) 316000 (2017) 403000 316000 326000 407000 475000 481000
2020-08-10 01:00 12.76 382000 481000 (2019) 316000 (2017) 403000 316000 326000 407000 475000 481000
2020-08-10 00:00 12.84 384000 481000 (2019) 316000 (2017) 403000 316000 326000 407000 475000 481000
2020-08-09 23:00 12.87 384000 501000 (2016) 335000 (2017) 422000 335000 343000 426000 497000 501000
2020-08-09 22:00 12.90 385000 501000 (2016) 335000 (2017) 422000 335000 343000 426000 497000 501000
2020-08-09 21:00 12.97 387000 501000 (2016) 335000 (2017) 422000 335000 343000 426000 497000 501000
2020-08-09 20:00 13.05 388000 501000 (2016) 335000 (2017) 422000 335000 343000 426000 497000 501000
2020-08-09 19:00 13.11 390000 501000 (2016) 335000 (2017) 422000 335000 343000 426000 497000 501000
2020-08-09 18:00 13.18 391000 501000 (2016) 335000 (2017) 422000 335000 343000 426000 497000 501000
2020-08-09 17:00 13.26 393000 501000 (2016) 335000 (2017) 422000 335000 343000 426000 497000 501000
2020-08-09 16:00 13.29 394000 501000 (2016) 335000 (2017) 422000 335000 343000 426000 497000 501000
2020-08-09 15:00 12.94 386000 501000 (2016) 335000 (2017) 422000 335000 343000 426000 497000 501000
2020-08-09 14:00 13.12 390000 501000 (2016) 335000 (2017) 422000 335000 343000 426000 497000 501000
2020-08-09 13:00 13.73 403000 501000 (2016) 335000 (2017) 422000 335000 343000 426000 497000 501000
2020-08-09 12:00 13.75 404000 501000 (2016) 335000 (2017) 422000 335000 343000 426000 497000 501000
2020-08-09 11:00 13.97 409000 501000 (2016) 335000 (2017) 422000 335000 343000 426000 497000 501000
2020-08-09 10:00 13.95 408000 501000 (2016) 335000 (2017) 422000 335000 343000 426000 497000 501000
2020-08-09 09:00 14.17 413000 501000 (2016) 335000 (2017) 422000 335000 343000 426000 497000 501000
2020-08-09 08:00 14.26 415000 501000 (2016) 335000 (2017) 422000 335000 343000 426000 497000 501000
2020-08-09 07:00 14.36 418000 501000 (2016) 335000 (2017) 422000 335000 343000 426000 497000 501000
2020-08-09 06:00 14.43 419000 501000 (2016) 335000 (2017) 422000 335000 343000 426000 497000 501000
2020-08-09 05:00 14.48 420000 501000 (2016) 335000 (2017) 422000 335000 343000 426000 497000 501000
2020-08-09 04:00 14.58 423000 501000 (2016) 335000 (2017) 422000 335000 343000 426000 497000 501000
2020-08-09 03:00 14.63 424000 501000 (2016) 335000 (2017) 422000 335000 343000 426000 497000 501000
2020-08-09 02:00 14.55 422000 501000 (2016) 335000 (2017) 422000 335000 343000 426000 497000 501000
2020-08-09 01:00 14.61 423000 501000 (2016) 335000 (2017) 422000 335000 343000 426000 497000 501000
2020-08-09 00:00 14.84 429000 501000 (2016) 335000 (2017) 422000 335000 343000 426000 497000 501000
2020-08-08 23:00 14.85 429000 517000 (2016) 351000 (2017) 438000 351000 357000 443000 515000 517000
2020-08-08 22:00 14.93 431000 517000 (2016) 351000 (2017) 438000 351000 357000 443000 515000 517000
2020-08-08 21:00 15.02 433000 517000 (2016) 351000 (2017) 438000 351000 357000 443000 515000 517000
2020-08-08 20:00 15.08 434000 517000 (2016) 351000 (2017) 438000 351000 357000 443000 515000 517000
2020-08-08 19:00 15.17 436000 517000 (2016) 351000 (2017) 438000 351000 357000 443000 515000 517000
2020-08-08 18:00 15.22 437000 517000 (2016) 351000 (2017) 438000 351000 357000 443000 515000 517000
2020-08-08 17:00 15.31 439000 517000 (2016) 351000 (2017) 438000 351000 357000 443000 515000 517000
2020-08-08 16:00 15.33 440000 517000 (2016) 351000 (2017) 438000 351000 357000 443000 515000 517000
2020-08-08 15:00 15.39 441000 517000 (2016) 351000 (2017) 438000 351000 357000 443000 515000 517000
2020-08-08 14:00 15.43 442000 517000 (2016) 351000 (2017) 438000 351000 357000 443000 515000 517000
2020-08-08 13:00 15.16 436000 517000 (2016) 351000 (2017) 438000 351000 357000 443000 515000 517000
2020-08-08 12:00 15.58 446000 517000 (2016) 351000 (2017) 438000 351000 357000 443000 515000 517000
2020-08-08 11:00 15.60 446000 517000 (2016) 351000 (2017) 438000 351000 357000 443000 515000 517000
2020-08-08 10:00 15.71 449000 517000 (2016) 351000 (2017) 438000 351000 357000 443000 515000 517000
2020-08-08 09:00 15.77 450000 517000 (2016) 351000 (2017) 438000 351000 357000 443000 515000 517000
2020-08-08 08:00 15.83 452000 517000 (2016) 351000 (2017) 438000 351000 357000 443000 515000 517000
2020-08-08 07:00 15.83 452000 517000 (2016) 351000 (2017) 438000 351000 357000 443000 515000 517000
2020-08-08 06:00 15.94 454000 517000 (2016) 351000 (2017) 438000 351000 357000 443000 515000 517000
2020-08-08 05:00 15.97 455000 517000 (2016) 351000 (2017) 438000 351000 357000 443000 515000 517000
2020-08-08 04:00 16.05 457000 517000 (2016) 351000 (2017) 438000 351000 357000 443000 515000 517000
2020-08-08 03:00 16.07 457000 517000 (2016) 351000 (2017) 438000 351000 357000 443000 515000 517000
2020-08-08 02:00 16.16 460000 517000 (2016) 351000 (2017) 438000 351000 357000 443000 515000 517000
2020-08-08 01:00 16.19 460000 517000 (2016) 351000 (2017) 438000 351000 357000 443000 515000 517000
2020-08-08 00:00 16.26 462000 517000 (2016) 351000 (2017) 438000 351000 357000 443000 515000 517000
2020-08-07 23:00 16.35 464000 532000 (2016) 386000 (2018) 460000 386000 388000 462000 532000 532000
2020-08-07 22:00 16.41 466000 532000 (2016) 386000 (2018) 460000 386000 388000 462000 532000 532000
2020-08-07 21:00 16.51 468000 532000 (2016) 386000 (2018) 460000 386000 388000 462000 532000 532000
2020-08-07 20:00 16.58 470000 532000 (2016) 386000 (2018) 460000 386000 388000 462000 532000 532000
2020-08-07 19:00 16.69 472000 532000 (2016) 386000 (2018) 460000 386000 388000 462000 532000 532000
2020-08-07 18:00 16.72 473000 532000 (2016) 386000 (2018) 460000 386000 388000 462000 532000 532000
2020-08-07 17:00 16.84 476000 532000 (2016) 386000 (2018) 460000 386000 388000 462000 532000 532000
2020-08-07 16:00 16.91 478000 532000 (2016) 386000 (2018) 460000 386000 388000 462000 532000 532000
2020-08-07 15:00 16.94 478000 532000 (2016) 386000 (2018) 460000 386000 388000 462000 532000 532000
2020-08-07 14:00 17.10 482000 532000 (2016) 386000 (2018) 460000 386000 388000 462000 532000 532000
2020-08-07 13:00 17.02 480000 532000 (2016) 386000 (2018) 460000 386000 388000 462000 532000 532000
2020-08-07 12:00 17.27 486000 532000 (2016) 386000 (2018) 460000 386000 388000 462000 532000 532000
2020-08-07 11:00 17.38 489000 532000 (2016) 386000 (2018) 460000 386000 388000 462000 532000 532000
2020-08-07 10:00 17.43 490000 532000 (2016) 386000 (2018) 460000 386000 388000 462000 532000 532000
2020-08-07 09:00 17.55 493000 532000 (2016) 386000 (2018) 460000 386000 388000 462000 532000 532000
2020-08-07 08:00 17.60 495000 532000 (2016) 386000 (2018) 460000 386000 388000 462000 532000 532000
2020-08-07 07:00 17.69 497000 532000 (2016) 386000 (2018) 460000 386000 388000 462000 532000 532000
2020-08-07 06:00 17.77 499000 532000 (2016) 386000 (2018) 460000 386000 388000 462000 532000 532000
2020-08-07 05:00 17.88 502000 532000 (2016) 386000 (2018) 460000 386000 388000 462000 532000 532000
2020-08-07 04:00 17.95 503000 532000 (2016) 386000 (2018) 460000 386000 388000 462000 532000 532000
2020-08-07 03:00 18.01 505000 532000 (2016) 386000 (2018) 460000 386000 388000 462000 532000 532000
2020-08-07 02:00 18.11 507000 532000 (2016) 386000 (2018) 460000 386000 388000 462000 532000 532000
2020-08-07 01:00 18.22 510000 532000 (2016) 386000 (2018) 460000 386000 388000 462000 532000 532000
2020-08-07 00:00 18.28 512000 532000 (2016) 386000 (2018) 460000 386000 388000 462000 532000 532000
2020-08-06 23:00 18.37 514000 541000 (2016) 398000 (2018) 481000 398000 410000 492000 540000 541000
2020-08-06 22:00 18.50 517000 541000 (2016) 398000 (2018) 481000 398000 410000 492000 540000 541000
2020-08-06 21:00 18.61 520000 541000 (2016) 398000 (2018) 481000 398000 410000 492000 540000 541000
2020-08-06 20:00 18.68 522000 541000 (2016) 398000 (2018) 481000 398000 410000 492000 540000 541000
2020-08-06 19:00 18.80 525000 541000 (2016) 398000 (2018) 481000 398000 410000 492000 540000 541000
2020-08-06 18:00 18.88 527000 541000 (2016) 398000 (2018) 481000 398000 410000 492000 540000 541000
2020-08-06 17:00 18.99 530000 541000 (2016) 398000 (2018) 481000 398000 410000 492000 540000 541000
2020-08-06 16:00 19.03 531000 541000 (2016) 398000 (2018) 481000 398000 410000 492000 540000 541000
2020-08-06 15:00 19.13 534000 541000 (2016) 398000 (2018) 481000 398000 410000 492000 540000 541000
2020-08-06 14:00 19.20 536000 541000 (2016) 398000 (2018) 481000 398000 410000 492000 540000 541000
2020-08-06 13:00 19.27 538000 541000 (2016) 398000 (2018) 481000 398000 410000 492000 540000 541000
2020-08-06 12:00 19.34 540000 541000 (2016) 398000 (2018) 481000 398000 410000 492000 540000 541000
2020-08-06 11:00 19.42 542000 541000 (2016) 398000 (2018) 481000 398000 410000 492000 540000 541000
2020-08-06 10:00 19.46 543000 541000 (2016) 398000 (2018) 481000 398000 410000 492000 540000 541000
2020-08-06 09:00 19.48 544000 541000 (2016) 398000 (2018) 481000 398000 410000 492000 540000 541000
2020-08-06 08:00 19.53 545000 541000 (2016) 398000 (2018) 481000 398000 410000 492000 540000 541000
2020-08-06 07:00 19.57 546000 541000 (2016) 398000 (2018) 481000 398000 410000 492000 540000 541000
2020-08-06 06:00 19.61 547000 541000 (2016) 398000 (2018) 481000 398000 410000 492000 540000 541000
2020-08-06 05:00 19.63 548000 541000 (2016) 398000 (2018) 481000 398000 410000 492000 540000 541000
2020-08-06 04:00 19.64 548000 541000 (2016) 398000 (2018) 481000 398000 410000 492000 540000 541000
2020-08-06 03:00 19.65 548000 541000 (2016) 398000 (2018) 481000 398000 410000 492000 540000 541000
2020-08-06 02:00 19.65 548000 541000 (2016) 398000 (2018) 481000 398000 410000 492000 540000 541000
2020-08-06 01:00 19.67 549000 541000 (2016) 398000 (2018) 481000 398000 410000 492000 540000 541000
2020-08-06 00:00 19.67 549000 541000 (2016) 398000 (2018) 481000 398000 410000 492000 540000 541000
2020-08-05 23:00 19.68 549000 549000 (2019) 405000 (2018) 495000 405000 430000 513000 542000 549000
2020-08-05 22:00 19.65 548000 549000 (2019) 405000 (2018) 495000 405000 430000 513000 542000 549000
2020-08-05 21:00 19.67 549000 549000 (2019) 405000 (2018) 495000 405000 430000 513000 542000 549000
2020-08-05 20:00 19.66 549000 549000 (2019) 405000 (2018) 495000 405000 430000 513000 542000 549000
2020-08-05 19:00 19.68 549000 549000 (2019) 405000 (2018) 495000 405000 430000 513000 542000 549000
2020-08-05 18:00 19.66 549000 549000 (2019) 405000 (2018) 495000 405000 430000 513000 542000 549000
2020-08-05 17:00 19.68 549000 549000 (2019) 405000 (2018) 495000 405000 430000 513000 542000 549000
2020-08-05 16:00 19.66 549000 549000 (2019) 405000 (2018) 495000 405000 430000 513000 542000 549000
2020-08-05 15:00 19.68 549000 549000 (2019) 405000 (2018) 495000 405000 430000 513000 542000 549000
2020-08-05 14:00 19.67 549000 549000 (2019) 405000 (2018) 495000 405000 430000 513000 542000 549000
2020-08-05 13:00 19.66 549000 549000 (2019) 405000 (2018) 495000 405000 430000 513000 542000 549000
2020-08-05 12:00 19.64 548000 549000 (2019) 405000 (2018) 495000 405000 430000 513000 542000 549000
2020-08-05 11:00 19.63 548000 549000 (2019) 405000 (2018) 495000 405000 430000 513000 542000 549000
2020-08-05 10:00 19.59 547000 549000 (2019) 405000 (2018) 495000 405000 430000 513000 542000 549000
2020-08-05 09:00 19.57 546000 549000 (2019) 405000 (2018) 495000 405000 430000 513000 542000 549000
2020-08-05 08:00 19.56 546000 549000 (2019) 405000 (2018) 495000 405000 430000 513000 542000 549000
2020-08-05 07:00 19.50 544000 549000 (2019) 405000 (2018) 495000 405000 430000 513000 542000 549000
2020-08-05 06:00 19.47 543000 549000 (2019) 405000 (2018) 495000 405000 430000 513000 542000 549000
2020-08-05 05:00 19.43 542000 549000 (2019) 405000 (2018) 495000 405000 430000 513000 542000 549000
2020-08-05 04:00 19.38 541000 549000 (2019) 405000 (2018) 495000 405000 430000 513000 542000 549000
2020-08-05 03:00 19.32 539000 549000 (2019) 405000 (2018) 495000 405000 430000 513000 542000 549000
2020-08-05 02:00 19.26 537000 549000 (2019) 405000 (2018) 495000 405000 430000 513000 542000 549000
2020-08-05 01:00 19.22 536000 549000 (2019) 405000 (2018) 495000 405000 430000 513000 542000 549000
2020-08-05 00:00 19.17 535000 549000 (2019) 405000 (2018) 495000 405000 430000 513000 542000 549000
2020-08-04 23:00 19.13 534000 571000 (2019) 402000 (2018) 501000 402000 424000 515000 563000 571000
2020-08-04 22:00 19.09 533000 571000 (2019) 402000 (2018) 501000 402000 424000 515000 563000 571000
2020-08-04 21:00 19.04 531000 571000 (2019) 402000 (2018) 501000 402000 424000 515000 563000 571000
2020-08-04 20:00 18.98 530000 571000 (2019) 402000 (2018) 501000 402000 424000 515000 563000 571000
2020-08-04 19:00 18.92 528000 571000 (2019) 402000 (2018) 501000 402000 424000 515000 563000 571000
2020-08-04 18:00 18.87 527000 571000 (2019) 402000 (2018) 501000 402000 424000 515000 563000 571000
2020-08-04 17:00 18.84 526000 571000 (2019) 402000 (2018) 501000 402000 424000 515000 563000 571000
2020-08-04 16:00 18.80 525000 571000 (2019) 402000 (2018) 501000 402000 424000 515000 563000 571000
2020-08-04 15:00 18.75 524000 571000 (2019) 402000 (2018) 501000 402000 424000 515000 563000 571000
2020-08-04 14:00 18.70 522000 571000 (2019) 402000 (2018) 501000 402000 424000 515000 563000 571000
2020-08-04 13:00 18.60 520000 571000 (2019) 402000 (2018) 501000 402000 424000 515000 563000 571000
2020-08-04 12:00 18.61 520000 571000 (2019) 402000 (2018) 501000 402000 424000 515000 563000 571000
2020-08-04 11:00 18.56 519000 571000 (2019) 402000 (2018) 501000 402000 424000 515000 563000 571000
2020-08-04 10:00 18.47 516000 571000 (2019) 402000 (2018) 501000 402000 424000 515000 563000 571000
2020-08-04 09:00 18.43 515000 571000 (2019) 402000 (2018) 501000 402000 424000 515000 563000 571000
2020-08-04 08:00 18.37 514000 571000 (2019) 402000 (2018) 501000 402000 424000 515000 563000 571000
2020-08-04 07:00 18.31 512000 571000 (2019) 402000 (2018) 501000 402000 424000 515000 563000 571000
2020-08-04 06:00 18.27 511000 571000 (2019) 402000 (2018) 501000 402000 424000 515000 563000 571000
2020-08-04 05:00 18.16 509000 571000 (2019) 402000 (2018) 501000 402000 424000 515000 563000 571000
2020-08-04 04:00 18.14 508000 571000 (2019) 402000 (2018) 501000 402000 424000 515000 563000 571000
2020-08-04 03:00 18.09 507000 571000 (2019) 402000 (2018) 501000 402000 424000 515000 563000 571000
2020-08-04 02:00 18.03 505000 571000 (2019) 402000 (2018) 501000 402000 424000 515000 563000 571000
2020-08-04 01:00 18.03 505000 571000 (2019) 402000 (2018) 501000 402000 424000 515000 563000 571000
2020-08-04 00:00 17.95 503000 571000 (2019) 402000 (2018) 501000 402000 424000 515000 563000 571000
2020-08-03 23:00 17.90 502000 584000 (2019) 393000 (2018) 505000 393000 418000 522000 576000 584000
2020-08-03 22:00 17.87 501000 584000 (2019) 393000 (2018) 505000 393000 418000 522000 576000 584000
2020-08-03 21:00 17.81 500000 584000 (2019) 393000 (2018) 505000 393000 418000 522000 576000 584000
2020-08-03 20:00 17.79 499000 584000 (2019) 393000 (2018) 505000 393000 418000 522000 576000 584000
2020-08-03 19:00 17.74 498000 584000 (2019) 393000 (2018) 505000 393000 418000 522000 576000 584000
2020-08-03 18:00 17.70 497000 584000 (2019) 393000 (2018) 505000 393000 418000 522000 576000 584000
2020-08-03 17:00 17.67 496000 584000 (2019) 393000 (2018) 505000 393000 418000 522000 576000 584000
2020-08-03 16:00 17.62 495000 584000 (2019) 393000 (2018) 505000 393000 418000 522000 576000 584000
2020-08-03 15:00 17.58 494000 584000 (2019) 393000 (2018) 505000 393000 418000 522000 576000 584000
2020-08-03 14:00 17.56 494000 584000 (2019) 393000 (2018) 505000 393000 418000 522000 576000 584000
2020-08-03 13:00 17.48 492000 584000 (2019) 393000 (2018) 505000 393000 418000 522000 576000 584000
2020-08-03 12:00 17.44 491000 584000 (2019) 393000 (2018) 505000 393000 418000 522000 576000 584000
2020-08-03 11:00 17.41 490000 584000 (2019) 393000 (2018) 505000 393000 418000 522000 576000 584000
2020-08-03 10:00 17.34 488000 584000 (2019) 393000 (2018) 505000 393000 418000 522000 576000 584000
2020-08-03 09:00 17.27 486000 584000 (2019) 393000 (2018) 505000 393000 418000 522000 576000 584000
2020-08-03 08:00 17.28 487000 584000 (2019) 393000 (2018) 505000 393000 418000 522000 576000 584000
2020-08-03 07:00 17.21 485000 584000 (2019) 393000 (2018) 505000 393000 418000 522000 576000 584000
2020-08-03 06:00 17.17 484000 584000 (2019) 393000 (2018) 505000 393000 418000 522000 576000 584000
2020-08-03 05:00 17.13 483000 584000 (2019) 393000 (2018) 505000 393000 418000 522000 576000 584000
2020-08-03 04:00 17.06 481000 584000 (2019) 393000 (2018) 505000 393000 418000 522000 576000 584000
2020-08-03 03:00 17.01 480000 584000 (2019) 393000 (2018) 505000 393000 418000 522000 576000 584000
2020-08-03 02:00 16.95 479000 584000 (2019) 393000 (2018) 505000 393000 418000 522000 576000 584000
2020-08-03 01:00 16.91 478000 584000 (2019) 393000 (2018) 505000 393000 418000 522000 576000 584000
2020-08-03 00:00 16.85 476000 584000 (2019) 393000 (2018) 505000 393000 418000 522000 576000 584000
2020-08-02 23:00 16.78 474000 598000 (2019) 382000 (2018) 506000 382000 411000 522000 585000 598000
2020-08-02 22:00 16.72 473000 598000 (2019) 382000 (2018) 506000 382000 411000 522000 585000 598000
2020-08-02 21:00 16.66 472000 598000 (2019) 382000 (2018) 506000 382000 411000 522000 585000 598000
2020-08-02 20:00 16.61 470000 598000 (2019) 382000 (2018) 506000 382000 411000 522000 585000 598000
2020-08-02 19:00 16.57 469000 598000 (2019) 382000 (2018) 506000 382000 411000 522000 585000 598000
2020-08-02 18:00 16.51 468000 598000 (2019) 382000 (2018) 506000 382000 411000 522000 585000 598000
2020-08-02 17:00 16.45 467000 598000 (2019) 382000 (2018) 506000 382000 411000 522000 585000 598000
2020-08-02 16:00 16.41 466000 598000 (2019) 382000 (2018) 506000 382000 411000 522000 585000 598000
2020-08-02 15:00 16.37 465000 598000 (2019) 382000 (2018) 506000 382000 411000 522000 585000 598000
2020-08-02 14:00 16.30 463000 598000 (2019) 382000 (2018) 506000 382000 411000 522000 585000 598000
2020-08-02 13:00 16.11 458000 598000 (2019) 382000 (2018) 506000 382000 411000 522000 585000 598000
2020-08-02 12:00 16.15 459000 598000 (2019) 382000 (2018) 506000 382000 411000 522000 585000 598000
2020-08-02 11:00 16.04 457000 598000 (2019) 382000 (2018) 506000 382000 411000 522000 585000 598000
2020-08-02 10:00 15.93 454000 598000 (2019) 382000 (2018) 506000 382000 411000 522000 585000 598000
2020-08-02 09:00 15.83 452000 598000 (2019) 382000 (2018) 506000 382000 411000 522000 585000 598000
2020-08-02 08:00 15.85 452000 598000 (2019) 382000 (2018) 506000 382000 411000 522000 585000 598000
2020-08-02 07:00 15.79 451000 598000 (2019) 382000 (2018) 506000 382000 411000 522000 585000 598000
2020-08-02 06:00 15.70 449000 598000 (2019) 382000 (2018) 506000 382000 411000 522000 585000 598000
2020-08-02 05:00 15.59 446000 598000 (2019) 382000 (2018) 506000 382000 411000 522000 585000 598000
2020-08-02 04:00 15.49 444000 598000 (2019) 382000 (2018) 506000 382000 411000 522000 585000 598000
2020-08-02 03:00 15.27 439000 598000 (2019) 382000 (2018) 506000 382000 411000 522000 585000 598000
2020-08-02 02:00 15.36 441000 598000 (2019) 382000 (2018) 506000 382000 411000 522000 585000 598000
2020-08-02 01:00 15.22 437000 598000 (2019) 382000 (2018) 506000 382000 411000 522000 585000 598000
2020-08-02 00:00 15.12 435000 598000 (2019) 382000 (2018) 506000 382000 411000 522000 585000 598000
2020-08-01 23:00 15.04 433000 622000 (2019) 378000 (2018) 506000 378000 408000 513000 598000 622000
2020-08-01 22:00 14.88 429000 622000 (2019) 378000 (2018) 506000 378000 408000 513000 598000 622000
2020-08-01 21:00 14.75 426000 622000 (2019) 378000 (2018) 506000 378000 408000 513000 598000 622000
2020-08-01 20:00 14.66 424000 622000 (2019) 378000 (2018) 506000 378000 408000 513000 598000 622000
2020-08-01 19:00 14.52 421000 622000 (2019) 378000 (2018) 506000 378000 408000 513000 598000 622000
2020-08-01 18:00 14.40 418000 622000 (2019) 378000 (2018) 506000 378000 408000 513000 598000 622000
2020-08-01 17:00 14.27 416000 622000 (2019) 378000 (2018) 506000 378000 408000 513000 598000 622000
2020-08-01 16:00 14.12 412000 622000 (2019) 378000 (2018) 506000 378000 408000 513000 598000 622000
2020-08-01 15:00 13.99 409000 622000 (2019) 378000 (2018) 506000 378000 408000 513000 598000 622000
2020-08-01 14:00 13.92 408000 622000 (2019) 378000 (2018) 506000 378000 408000 513000 598000 622000
2020-08-01 13:00 13.87 406000 622000 (2019) 378000 (2018) 506000 378000 408000 513000 598000 622000
2020-08-01 12:00 13.74 404000 622000 (2019) 378000 (2018) 506000 378000 408000 513000 598000 622000
2020-08-01 11:00 13.68 402000 622000 (2019) 378000 (2018) 506000 378000 408000 513000 598000 622000
2020-08-01 10:00 13.26 393000 622000 (2019) 378000 (2018) 506000 378000 408000 513000 598000 622000
2020-08-01 09:00 13.41 396000 622000 (2019) 378000 (2018) 506000 378000 408000 513000 598000 622000
2020-08-01 08:00 12.82 383000 622000 (2019) 378000 (2018) 506000 378000 408000 513000 598000 622000
2020-08-01 07:00 13.33 394000 622000 (2019) 378000 (2018) 506000 378000 408000 513000 598000 622000
2020-08-01 06:00 13.20 392000 622000 (2019) 378000 (2018) 506000 378000 408000 513000 598000 622000
2020-08-01 05:00 12.94 386000 622000 (2019) 378000 (2018) 506000 378000 408000 513000 598000 622000
2020-08-01 04:00 12.97 387000 622000 (2019) 378000 (2018) 506000 378000 408000 513000 598000 622000
2020-08-01 03:00 12.87 384000 622000 (2019) 378000 (2018) 506000 378000 408000 513000 598000 622000
2020-08-01 02:00 12.63 379000 622000 (2019) 378000 (2018) 506000 378000 408000 513000 598000 622000
2020-08-01 01:00 12.67 380000 622000 (2019) 378000 (2018) 506000 378000 408000 513000 598000 622000
2020-08-01 00:00 12.61 379000 622000 (2019) 378000 (2018) 506000 378000 408000 513000 598000 622000
2020-07-31 23:00 12.46 375000 653000 (2019) 381000 (2018) 509000 381000 407000 501000 619000 653000
2020-07-31 22:00 12.15 369000 653000 (2019) 381000 (2018) 509000 381000 407000 501000 619000 653000
2020-07-31 21:00 12.09 367000 653000 (2019) 381000 (2018) 509000 381000 407000 501000 619000 653000
2020-07-31 20:00 12.23 370000 653000 (2019) 381000 (2018) 509000 381000 407000 501000 619000 653000
2020-07-31 19:00 12.19 370000 653000 (2019) 381000 (2018) 509000 381000 407000 501000 619000 653000
2020-07-31 18:00 12.10 368000 653000 (2019) 381000 (2018) 509000 381000 407000 501000 619000 653000
2020-07-31 17:00 11.67 359000 653000 (2019) 381000 (2018) 509000 381000 407000 501000 619000 653000
2020-07-31 16:00 11.94 364000 653000 (2019) 381000 (2018) 509000 381000 407000 501000 619000 653000
2020-07-31 15:00 11.88 363000 653000 (2019) 381000 (2018) 509000 381000 407000 501000 619000 653000
2020-07-31 14:00 12.16 369000 653000 (2019) 381000 (2018) 509000 381000 407000 501000 619000 653000
2020-07-31 13:00 12.23 370000 653000 (2019) 381000 (2018) 509000 381000 407000 501000 619000 653000
2020-07-31 12:00 11.93 364000 653000 (2019) 381000 (2018) 509000 381000 407000 501000 619000 653000
2020-07-31 11:00 12.33 373000 653000 (2019) 381000 (2018) 509000 381000 407000 501000 619000 653000
2020-07-31 10:00 12.36 373000 653000 (2019) 381000 (2018) 509000 381000 407000 501000 619000 653000
2020-07-31 09:00 12.31 372000 653000 (2019) 381000 (2018) 509000 381000 407000 501000 619000 653000
2020-07-31 08:00 12.38 374000 653000 (2019) 381000 (2018) 509000 381000 407000 501000 619000 653000
2020-07-31 07:00 12.52 377000 653000 (2019) 381000 (2018) 509000 381000 407000 501000 619000 653000
2020-07-31 06:00 12.52 377000 653000 (2019) 381000 (2018) 509000 381000 407000 501000 619000 653000
2020-07-31 05:00 12.48 376000 653000 (2019) 381000 (2018) 509000 381000 407000 501000 619000 653000
2020-07-31 04:00 12.44 375000 653000 (2019) 381000 (2018) 509000 381000 407000 501000 619000 653000
2020-07-31 03:00 12.40 374000 653000 (2019) 381000 (2018) 509000 381000 407000 501000 619000 653000
2020-07-31 02:00 12.40 374000 653000 (2019) 381000 (2018) 509000 381000 407000 501000 619000 653000
2020-07-31 01:00 12.36 373000 653000 (2019) 381000 (2018) 509000 381000 407000 501000 619000 653000
2020-07-31 00:00 12.36 373000 653000 (2019) 381000 (2018) 509000 381000 407000 501000 619000 653000
2020-07-30 23:00 12.34 373000 705000 (2019) 387000 (2018) 517000 387000 406000 487000 657000 705000
2020-07-30 22:00 11.96 365000 705000 (2019) 387000 (2018) 517000 387000 406000 487000 657000 705000
2020-07-30 21:00 12.21 370000 705000 (2019) 387000 (2018) 517000 387000 406000 487000 657000 705000
2020-07-30 20:00 12.06 367000 705000 (2019) 387000 (2018) 517000 387000 406000 487000 657000 705000
2020-07-30 19:00 11.57 356000 705000 (2019) 387000 (2018) 517000 387000 406000 487000 657000 705000
2020-07-30 18:00 11.43 354000 705000 (2019) 387000 (2018) 517000 387000 406000 487000 657000 705000
2020-07-30 17:00 12.00 366000 705000 (2019) 387000 (2018) 517000 387000 406000 487000 657000 705000
2020-07-30 16:00 11.92 364000 705000 (2019) 387000 (2018) 517000 387000 406000 487000 657000 705000
2020-07-30 15:00 12.01 366000 705000 (2019) 387000 (2018) 517000 387000 406000 487000 657000 705000
2020-07-30 14:00 11.81 362000 705000 (2019) 387000 (2018) 517000 387000 406000 487000 657000 705000
2020-07-30 13:00 11.97 365000 705000 (2019) 387000 (2018) 517000 387000 406000 487000 657000 705000
2020-07-30 12:00 12.04 366000 705000 (2019) 387000 (2018) 517000 387000 406000 487000 657000 705000
2020-07-30 11:00 12.00 366000 705000 (2019) 387000 (2018) 517000 387000 406000 487000 657000 705000
2020-07-30 10:00 11.89 363000 705000 (2019) 387000 (2018) 517000 387000 406000 487000 657000 705000
2020-07-30 09:00 12.01 366000 705000 (2019) 387000 (2018) 517000 387000 406000 487000 657000 705000
2020-07-30 08:00 12.15 369000 705000 (2019) 387000 (2018) 517000 387000 406000 487000 657000 705000
2020-07-30 07:00 12.05 367000 705000 (2019) 387000 (2018) 517000 387000 406000 487000 657000 705000
2020-07-30 06:00 11.94 364000 705000 (2019) 387000 (2018) 517000 387000 406000 487000 657000 705000
2020-07-30 05:00 12.06 367000 705000 (2019) 387000 (2018) 517000 387000 406000 487000 657000 705000
2020-07-30 04:00 12.00 366000 705000 (2019) 387000 (2018) 517000 387000 406000 487000 657000 705000
2020-07-30 03:00 12.00 366000 705000 (2019) 387000 (2018) 517000 387000 406000 487000 657000 705000
2020-07-30 02:00 11.94 364000 705000 (2019) 387000 (2018) 517000 387000 406000 487000 657000 705000
2020-07-30 01:00 12.01 366000 705000 (2019) 387000 (2018) 517000 387000 406000 487000 657000 705000
2020-07-30 00:00 12.15 369000 705000 (2019) 387000 (2018) 517000 387000 406000 487000 657000 705000
2020-07-29 23:00 12.18 369000 753000 (2019) 397000 (2018) 525000 397000 411000 476000 690000 753000
2020-07-29 22:00 12.22 370000 753000 (2019) 397000 (2018) 525000 397000 411000 476000 690000 753000
2020-07-29 21:00 12.28 372000 753000 (2019) 397000 (2018) 525000 397000 411000 476000 690000 753000
2020-07-29 20:00 12.32 372000 753000 (2019) 397000 (2018) 525000 397000 411000 476000 690000 753000
2020-07-29 19:00 12.34 373000 753000 (2019) 397000 (2018) 525000 397000 411000 476000 690000 753000
2020-07-29 18:00 12.40 374000 753000 (2019) 397000 (2018) 525000 397000 411000 476000 690000 753000
2020-07-29 17:00 12.39 374000 753000 (2019) 397000 (2018) 525000 397000 411000 476000 690000 753000
2020-07-29 16:00 11.56 356000 753000 (2019) 397000 (2018) 525000 397000 411000 476000 690000 753000
2020-07-29 15:00 12.44 375000 753000 (2019) 397000 (2018) 525000 397000 411000 476000 690000 753000
2020-07-29 14:00 12.51 377000 753000 (2019) 397000 (2018) 525000 397000 411000 476000 690000 753000
2020-07-29 13:00 12.20 370000 753000 (2019) 397000 (2018) 525000 397000 411000 476000 690000 753000
2020-07-29 12:00 12.63 379000 753000 (2019) 397000 (2018) 525000 397000 411000 476000 690000 753000
2020-07-29 11:00 12.70 381000 753000 (2019) 397000 (2018) 525000 397000 411000 476000 690000 753000
2020-07-29 10:00 12.70 381000 753000 (2019) 397000 (2018) 525000 397000 411000 476000 690000 753000
2020-07-29 09:00 12.74 381000 753000 (2019) 397000 (2018) 525000 397000 411000 476000 690000 753000
2020-07-29 08:00 12.79 383000 753000 (2019) 397000 (2018) 525000 397000 411000 476000 690000 753000
2020-07-29 07:00 12.78 382000 753000 (2019) 397000 (2018) 525000 397000 411000 476000 690000 753000
2020-07-29 06:00 12.82 383000 753000 (2019) 397000 (2018) 525000 397000 411000 476000 690000 753000
2020-07-29 05:00 12.83 383000 753000 (2019) 397000 (2018) 525000 397000 411000 476000 690000 753000
2020-07-29 04:00 12.88 385000 753000 (2019) 397000 (2018) 525000 397000 411000 476000 690000 753000
2020-07-29 03:00 12.91 385000 753000 (2019) 397000 (2018) 525000 397000 411000 476000 690000 753000
2020-07-29 02:00 12.96 386000 753000 (2019) 397000 (2018) 525000 397000 411000 476000 690000 753000
2020-07-29 01:00 13.01 387000 753000 (2019) 397000 (2018) 525000 397000 411000 476000 690000 753000
2020-07-29 00:00 13.07 389000 753000 (2019) 397000 (2018) 525000 397000 411000 476000 690000 753000
2020-07-28 23:00 13.18 391000 771000 (2019) 407000 (2018) 524000 407000 417000 460000 697000 771000
2020-07-28 22:00 13.24 392000 771000 (2019) 407000 (2018) 524000 407000 417000 460000 697000 771000
2020-07-28 21:00 13.27 393000 771000 (2019) 407000 (2018) 524000 407000 417000 460000 697000 771000
2020-07-28 20:00 13.37 395000 771000 (2019) 407000 (2018) 524000 407000 417000 460000 697000 771000
2020-07-28 19:00 13.42 396000 771000 (2019) 407000 (2018) 524000 407000 417000 460000 697000 771000
2020-07-28 18:00 13.48 398000 771000 (2019) 407000 (2018) 524000 407000 417000 460000 697000 771000
2020-07-28 17:00 13.49 398000 771000 (2019) 407000 (2018) 524000 407000 417000 460000 697000 771000
2020-07-28 16:00 13.56 400000 771000 (2019) 407000 (2018) 524000 407000 417000 460000 697000 771000
2020-07-28 15:00 13.62 401000 771000 (2019) 407000 (2018) 524000 407000 417000 460000 697000 771000
2020-07-28 14:00 13.66 402000 771000 (2019) 407000 (2018) 524000 407000 417000 460000 697000 771000
2020-07-28 13:00 13.71 403000 771000 (2019) 407000 (2018) 524000 407000 417000 460000 697000 771000
2020-07-28 12:00 13.75 404000 771000 (2019) 407000 (2018) 524000 407000 417000 460000 697000 771000
2020-07-28 11:00 13.58 400000 771000 (2019) 407000 (2018) 524000 407000 417000 460000 697000 771000
2020-07-28 10:00 13.78 404000 771000 (2019) 407000 (2018) 524000 407000 417000 460000 697000 771000
2020-07-28 09:00 13.80 405000 771000 (2019) 407000 (2018) 524000 407000 417000 460000 697000 771000
2020-07-28 08:00 13.81 405000 771000 (2019) 407000 (2018) 524000 407000 417000 460000 697000 771000
2020-07-28 07:00 13.80 405000 771000 (2019) 407000 (2018) 524000 407000 417000 460000 697000 771000
2020-07-28 06:00 13.85 406000 771000 (2019) 407000 (2018) 524000 407000 417000 460000 697000 771000
2020-07-28 05:00 13.83 406000 771000 (2019) 407000 (2018) 524000 407000 417000 460000 697000 771000
2020-07-28 04:00 13.84 406000 771000 (2019) 407000 (2018) 524000 407000 417000 460000 697000 771000
2020-07-28 03:00 13.87 406000 771000 (2019) 407000 (2018) 524000 407000 417000 460000 697000 771000
2020-07-28 02:00 13.88 407000 771000 (2019) 407000 (2018) 524000 407000 417000 460000 697000 771000
2020-07-28 01:00 13.87 406000 771000 (2019) 407000 (2018) 524000 407000 417000 460000 697000 771000
2020-07-28 00:00 13.89 407000 771000 (2019) 407000 (2018) 524000 407000 417000 460000 697000 771000
2020-07-27 23:00 13.92 408000 775000 (2019) 412000 (2018) 515000 412000 416000 438000 693000 775000
2020-07-27 22:00 13.97 409000 775000 (2019) 412000 (2018) 515000 412000 416000 438000 693000 775000
2020-07-27 21:00 14.02 410000 775000 (2019) 412000 (2018) 515000 412000 416000 438000 693000 775000
2020-07-27 20:00 14.06 411000 775000 (2019) 412000 (2018) 515000 412000 416000 438000 693000 775000
2020-07-27 19:00 14.06 411000 775000 (2019) 412000 (2018) 515000 412000 416000 438000 693000 775000
2020-07-27 18:00 14.03 410000 775000 (2019) 412000 (2018) 515000 412000 416000 438000 693000 775000
2020-07-27 17:00 14.18 413000 775000 (2019) 412000 (2018) 515000 412000 416000 438000 693000 775000
2020-07-27 16:00 14.08 411000 775000 (2019) 412000 (2018) 515000 412000 416000 438000 693000 775000
2020-07-27 15:00 13.56 400000 775000 (2019) 412000 (2018) 515000 412000 416000 438000 693000 775000
2020-07-27 14:00 13.98 409000 775000 (2019) 412000 (2018) 515000 412000 416000 438000 693000 775000
2020-07-27 13:00 14.09 411000 775000 (2019) 412000 (2018) 515000 412000 416000 438000 693000 775000
2020-07-27 12:00 14.11 412000 775000 (2019) 412000 (2018) 515000 412000 416000 438000 693000 775000
2020-07-27 11:00 13.99 409000 775000 (2019) 412000 (2018) 515000 412000 416000 438000 693000 775000
2020-07-27 10:00 14.02 410000 775000 (2019) 412000 (2018) 515000 412000 416000 438000 693000 775000
2020-07-27 09:00 14.17 413000 775000 (2019) 412000 (2018) 515000 412000 416000 438000 693000 775000
2020-07-27 08:00 14.13 412000 775000 (2019) 412000 (2018) 515000 412000 416000 438000 693000 775000
2020-07-27 07:00 13.96 408000 775000 (2019) 412000 (2018) 515000 412000 416000 438000 693000 775000
2020-07-27 06:00 14.21 414000 775000 (2019) 412000 (2018) 515000 412000 416000 438000 693000 775000
2020-07-27 05:00 14.13 412000 775000 (2019) 412000 (2018) 515000 412000 416000 438000 693000 775000
2020-07-27 04:00 14.12 412000 775000 (2019) 412000 (2018) 515000 412000 416000 438000 693000 775000
2020-07-27 03:00 14.11 412000 775000 (2019) 412000 (2018) 515000 412000 416000 438000 693000 775000
2020-07-27 02:00 14.12 412000 775000 (2019) 412000 (2018) 515000 412000 416000 438000 693000 775000
2020-07-27 01:00 14.09 411000 775000 (2019) 412000 (2018) 515000 412000 416000 438000 693000 775000
2020-07-27 00:00 14.09 411000 775000 (2019) 412000 (2018) 515000 412000 416000 438000 693000 775000
2020-07-26 23:00 14.15 413000 773000 (2019) 411000 (2016) 507000 411000 413000 422000 686000 773000
2020-07-26 22:00 14.16 413000 773000 (2019) 411000 (2016) 507000 411000 413000 422000 686000 773000
2020-07-26 21:00 14.18 413000 773000 (2019) 411000 (2016) 507000 411000 413000 422000 686000 773000
2020-07-26 20:00 14.16 413000 773000 (2019) 411000 (2016) 507000 411000 413000 422000 686000 773000
2020-07-26 19:00 13.95 408000 773000 (2019) 411000 (2016) 507000 411000 413000 422000 686000 773000
2020-07-26 18:00 14.14 413000 773000 (2019) 411000 (2016) 507000 411000 413000 422000 686000 773000
2020-07-26 17:00 14.10 412000 773000 (2019) 411000 (2016) 507000 411000 413000 422000 686000 773000
2020-07-26 16:00 13.92 408000 773000 (2019) 411000 (2016) 507000 411000 413000 422000 686000 773000
2020-07-26 15:00 13.94 408000 773000 (2019) 411000 (2016) 507000 411000 413000 422000 686000 773000
2020-07-26 14:00 13.89 407000 773000 (2019) 411000 (2016) 507000 411000 413000 422000 686000 773000
2020-07-26 13:00 13.47 398000 773000 (2019) 411000 (2016) 507000 411000 413000 422000 686000 773000
2020-07-26 12:00 13.82 405000 773000 (2019) 411000 (2016) 507000 411000 413000 422000 686000 773000
2020-07-26 11:00 13.76 404000 773000 (2019) 411000 (2016) 507000 411000 413000 422000 686000 773000
2020-07-26 10:00 13.95 408000 773000 (2019) 411000 (2016) 507000 411000 413000 422000 686000 773000
2020-07-26 09:00 13.88 407000 773000 (2019) 411000 (2016) 507000 411000 413000 422000 686000 773000
2020-07-26 08:00 13.87 406000 773000 (2019) 411000 (2016) 507000 411000 413000 422000 686000 773000
2020-07-26 07:00 13.86 406000 773000 (2019) 411000 (2016) 507000 411000 413000 422000 686000 773000
2020-07-26 06:00 13.81 405000 773000 (2019) 411000 (2016) 507000 411000 413000 422000 686000 773000
2020-07-26 05:00 13.74 404000 773000 (2019) 411000 (2016) 507000 411000 413000 422000 686000 773000
2020-07-26 04:00 13.69 402000 773000 (2019) 411000 (2016) 507000 411000 413000 422000 686000 773000
2020-07-26 03:00 13.67 402000 773000 (2019) 411000 (2016) 507000 411000 413000 422000 686000 773000
2020-07-26 02:00 13.64 401000 773000 (2019) 411000 (2016) 507000 411000 413000 422000 686000 773000
2020-07-26 01:00 13.64 401000 773000 (2019) 411000 (2016) 507000 411000 413000 422000 686000 773000
2020-07-26 00:00 13.61 401000 773000 (2019) 411000 (2016) 507000 411000 413000 422000 686000 773000
2020-07-25 23:00 13.61 401000 772000 (2019) 377000 (2016) 497000 377000 385000 420000 687000 772000
2020-07-25 22:00 13.65 402000 772000 (2019) 377000 (2016) 497000 377000 385000 420000 687000 772000
2020-07-25 21:00 13.66 402000 772000 (2019) 377000 (2016) 497000 377000 385000 420000 687000 772000
2020-07-25 20:00 13.64 401000 772000 (2019) 377000 (2016) 497000 377000 385000 420000 687000 772000
2020-07-25 19:00 13.72 403000 772000 (2019) 377000 (2016) 497000 377000 385000 420000 687000 772000
2020-07-25 18:00 13.56 400000 772000 (2019) 377000 (2016) 497000 377000 385000 420000 687000 772000
2020-07-25 17:00 13.79 405000 772000 (2019) 377000 (2016) 497000 377000 385000 420000 687000 772000
2020-07-25 16:00 13.83 406000 772000 (2019) 377000 (2016) 497000 377000 385000 420000 687000 772000
2020-07-25 15:00 13.87 406000 772000 (2019) 377000 (2016) 497000 377000 385000 420000 687000 772000
2020-07-25 14:00 13.91 407000 772000 (2019) 377000 (2016) 497000 377000 385000 420000 687000 772000
2020-07-25 13:00 13.90 407000 772000 (2019) 377000 (2016) 497000 377000 385000 420000 687000 772000
2020-07-25 12:00 13.95 408000 772000 (2019) 377000 (2016) 497000 377000 385000 420000 687000 772000
2020-07-25 11:00 14.01 410000 772000 (2019) 377000 (2016) 497000 377000 385000 420000 687000 772000
2020-07-25 10:00 14.03 410000 772000 (2019) 377000 (2016) 497000 377000 385000 420000 687000 772000
2020-07-25 09:00 14.02 410000 772000 (2019) 377000 (2016) 497000 377000 385000 420000 687000 772000
2020-07-25 08:00 14.00 409000 772000 (2019) 377000 (2016) 497000 377000 385000 420000 687000 772000
2020-07-25 07:00 14.04 410000 772000 (2019) 377000 (2016) 497000 377000 385000 420000 687000 772000
2020-07-25 06:00 14.07 411000 772000 (2019) 377000 (2016) 497000 377000 385000 420000 687000 772000
2020-07-25 05:00 14.08 411000 772000 (2019) 377000 (2016) 497000 377000 385000 420000 687000 772000
2020-07-25 04:00 14.07 411000 772000 (2019) 377000 (2016) 497000 377000 385000 420000 687000 772000
2020-07-25 03:00 14.08 411000 772000 (2019) 377000 (2016) 497000 377000 385000 420000 687000 772000
2020-07-25 02:00 14.10 412000 772000 (2019) 377000 (2016) 497000 377000 385000 420000 687000 772000
2020-07-25 01:00 14.02 410000 772000 (2019) 377000 (2016) 497000 377000 385000 420000 687000 772000
2020-07-25 00:00 13.77 404000 772000 (2019) 377000 (2016) 497000 377000 385000 420000 687000 772000
2020-07-24 23:00 14.10 412000 765000 (2019) 364000 (2016) 494000 364000 376000 424000 683000 765000
2020-07-24 22:00 14.12 412000 765000 (2019) 364000 (2016) 494000 364000 376000 424000 683000 765000
2020-07-24 21:00 13.92 408000 765000 (2019) 364000 (2016) 494000 364000 376000 424000 683000 765000
2020-07-24 20:00 13.83 406000 765000 (2019) 364000 (2016) 494000 364000 376000 424000 683000 765000
2020-07-24 19:00 13.87 406000 765000 (2019) 364000 (2016) 494000 364000 376000 424000 683000 765000
2020-07-24 18:00 14.13 412000 765000 (2019) 364000 (2016) 494000 364000 376000 424000 683000 765000
2020-07-24 17:00 14.11 412000 765000 (2019) 364000 (2016) 494000 364000 376000 424000 683000 765000
2020-07-24 16:00 14.11 412000 765000 (2019) 364000 (2016) 494000 364000 376000 424000 683000 765000
2020-07-24 15:00 14.12 412000 765000 (2019) 364000 (2016) 494000 364000 376000 424000 683000 765000
2020-07-24 14:00 14.11 412000 765000 (2019) 364000 (2016) 494000 364000 376000 424000 683000 765000
2020-07-24 13:00 14.06 411000 765000 (2019) 364000 (2016) 494000 364000 376000 424000 683000 765000
2020-07-24 12:00 13.93 408000 765000 (2019) 364000 (2016) 494000 364000 376000 424000 683000 765000
2020-07-24 11:00 14.00 409000 765000 (2019) 364000 (2016) 494000 364000 376000 424000 683000 765000
2020-07-24 10:00 13.98 409000 765000 (2019) 364000 (2016) 494000 364000 376000 424000 683000 765000
2020-07-24 09:00 13.95 408000 765000 (2019) 364000 (2016) 494000 364000 376000 424000 683000 765000
2020-07-24 08:00 13.88 407000 765000 (2019) 364000 (2016) 494000 364000 376000 424000 683000 765000
2020-07-24 07:00 13.81 405000 765000 (2019) 364000 (2016) 494000 364000 376000 424000 683000 765000
2020-07-24 06:00 13.74 404000 765000 (2019) 364000 (2016) 494000 364000 376000 424000 683000 765000
2020-07-24 05:00 13.66 402000 765000 (2019) 364000 (2016) 494000 364000 376000 424000 683000 765000
2020-07-24 04:00 13.61 401000 765000 (2019) 364000 (2016) 494000 364000 376000 424000 683000 765000
2020-07-24 03:00 13.53 399000 765000 (2019) 364000 (2016) 494000 364000 376000 424000 683000 765000
2020-07-24 02:00 13.49 398000 765000 (2019) 364000 (2016) 494000 364000 376000 424000 683000 765000
2020-07-24 01:00 13.45 397000 765000 (2019) 364000 (2016) 494000 364000 376000 424000 683000 765000
2020-07-24 00:00 13.46 397000 765000 (2019) 364000 (2016) 494000 364000 376000 424000 683000 765000
2020-07-23 23:00 13.45 397000 766000 (2019) 357000 (2016) 496000 357000 375000 430000 682000 766000
2020-07-23 22:00 13.44 397000 766000 (2019) 357000 (2016) 496000 357000 375000 430000 682000 766000
2020-07-23 21:00 13.46 397000 766000 (2019) 357000 (2016) 496000 357000 375000 430000 682000 766000
2020-07-23 20:00 13.51 398000 766000 (2019) 357000 (2016) 496000 357000 375000 430000 682000 766000
2020-07-23 19:00 13.51 398000 766000 (2019) 357000 (2016) 496000 357000 375000 430000 682000 766000
2020-07-23 18:00 13.57 400000 766000 (2019) 357000 (2016) 496000 357000 375000 430000 682000 766000
2020-07-23 17:00 13.56 400000 766000 (2019) 357000 (2016) 496000 357000 375000 430000 682000 766000
2020-07-23 16:00 13.60 400000 766000 (2019) 357000 (2016) 496000 357000 375000 430000 682000 766000
2020-07-23 15:00 13.60 400000 766000 (2019) 357000 (2016) 496000 357000 375000 430000 682000 766000
2020-07-23 14:00 13.65 402000 766000 (2019) 357000 (2016) 496000 357000 375000 430000 682000 766000
2020-07-23 13:00 13.65 402000 766000 (2019) 357000 (2016) 496000 357000 375000 430000 682000 766000
2020-07-23 12:00 13.68 402000 766000 (2019) 357000 (2016) 496000 357000 375000 430000 682000 766000
2020-07-23 11:00 13.67 402000 766000 (2019) 357000 (2016) 496000 357000 375000 430000 682000 766000
2020-07-23 10:00 13.66 402000 766000 (2019) 357000 (2016) 496000 357000 375000 430000 682000 766000
2020-07-23 09:00 13.65 402000 766000 (2019) 357000 (2016) 496000 357000 375000 430000 682000 766000
2020-07-23 08:00 13.60 400000 766000 (2019) 357000 (2016) 496000 357000 375000 430000 682000 766000
2020-07-23 07:00 13.56 400000 766000 (2019) 357000 (2016) 496000 357000 375000 430000 682000 766000
2020-07-23 06:00 13.39 396000 766000 (2019) 357000 (2016) 496000 357000 375000 430000 682000 766000
2020-07-23 05:00 13.53 399000 766000 (2019) 357000 (2016) 496000 357000 375000 430000 682000 766000
2020-07-23 04:00 13.46 397000 766000 (2019) 357000 (2016) 496000 357000 375000 430000 682000 766000
2020-07-23 03:00 13.44 397000 766000 (2019) 357000 (2016) 496000 357000 375000 430000 682000 766000
2020-07-23 02:00 13.37 395000 766000 (2019) 357000 (2016) 496000 357000 375000 430000 682000 766000
2020-07-23 01:00 13.33 394000 766000 (2019) 357000 (2016) 496000 357000 375000 430000 682000 766000
2020-07-23 00:00 13.31 394000 766000 (2019) 357000 (2016) 496000 357000 375000 430000 682000 766000
2020-07-22 23:00 13.31 394000 760000 (2019) 362000 (2016) 503000 362000 377000 446000 687000 760000
2020-07-22 22:00 13.27 393000 760000 (2019) 362000 (2016) 503000 362000 377000 446000 687000 760000
2020-07-22 21:00 13.22 392000 760000 (2019) 362000 (2016) 503000 362000 377000 446000 687000 760000
2020-07-22 20:00 13.25 393000 760000 (2019) 362000 (2016) 503000 362000 377000 446000 687000 760000
2020-07-22 19:00 13.22 392000 760000 (2019) 362000 (2016) 503000 362000 377000 446000 687000 760000
2020-07-22 18:00 12.59 378000 760000 (2019) 362000 (2016) 503000 362000 377000 446000 687000 760000
2020-07-22 17:00 13.11 390000 760000 (2019) 362000 (2016) 503000 362000 377000 446000 687000 760000
2020-07-22 16:00 13.06 388000 760000 (2019) 362000 (2016) 503000 362000 377000 446000 687000 760000
2020-07-22 15:00 13.04 388000 760000 (2019) 362000 (2016) 503000 362000 377000 446000 687000 760000
2020-07-22 14:00 13.17 391000 760000 (2019) 362000 (2016) 503000 362000 377000 446000 687000 760000
2020-07-22 13:00 13.16 391000 760000 (2019) 362000 (2016) 503000 362000 377000 446000 687000 760000
2020-07-22 12:00 12.92 385000 760000 (2019) 362000 (2016) 503000 362000 377000 446000 687000 760000
2020-07-22 11:00 13.03 388000 760000 (2019) 362000 (2016) 503000 362000 377000 446000 687000 760000
2020-07-22 10:00 12.97 387000 760000 (2019) 362000 (2016) 503000 362000 377000 446000 687000 760000
2020-07-22 09:00 12.81 383000 760000 (2019) 362000 (2016) 503000 362000 377000 446000 687000 760000
2020-07-22 08:00 12.80 383000 760000 (2019) 362000 (2016) 503000 362000 377000 446000 687000 760000
2020-07-22 07:00 12.91 385000 760000 (2019) 362000 (2016) 503000 362000 377000 446000 687000 760000
2020-07-22 06:00 12.63 379000 760000 (2019) 362000 (2016) 503000 362000 377000 446000 687000 760000
2020-07-22 05:00 12.84 384000 760000 (2019) 362000 (2016) 503000 362000 377000 446000 687000 760000
2020-07-22 04:00 12.76 382000 760000 (2019) 362000 (2016) 503000 362000 377000 446000 687000 760000
2020-07-22 03:00 12.80 383000 760000 (2019) 362000 (2016) 503000 362000 377000 446000 687000 760000
2020-07-22 02:00 12.87 384000 760000 (2019) 362000 (2016) 503000 362000 377000 446000 687000 760000
2020-07-22 01:00 12.81 383000 760000 (2019) 362000 (2016) 503000 362000 377000 446000 687000 760000
2020-07-22 00:00 12.76 382000 760000 (2019) 362000 (2016) 503000 362000 377000 446000 687000 760000
2020-07-21 23:00 12.74 381000 759000 (2019) 386000 (2016) 517000 386000 395000 462000 695000 759000
2020-07-21 22:00 12.69 380000 759000 (2019) 386000 (2016) 517000 386000 395000 462000 695000 759000
2020-07-21 21:00 12.65 380000 759000 (2019) 386000 (2016) 517000 386000 395000 462000 695000 759000
2020-07-21 20:00 12.63 379000 759000 (2019) 386000 (2016) 517000 386000 395000 462000 695000 759000
2020-07-21 19:00 12.62 379000 759000 (2019) 386000 (2016) 517000 386000 395000 462000 695000 759000
2020-07-21 18:00 12.53 377000 759000 (2019) 386000 (2016) 517000 386000 395000 462000 695000 759000
2020-07-21 17:00 12.55 377000 759000 (2019) 386000 (2016) 517000 386000 395000 462000 695000 759000
2020-07-21 16:00 12.46 375000 759000 (2019) 386000 (2016) 517000 386000 395000 462000 695000 759000
2020-07-21 15:00 12.18 369000 759000 (2019) 386000 (2016) 517000 386000 395000 462000 695000 759000
2020-07-21 14:00 12.52 377000 759000 (2019) 386000 (2016) 517000 386000 395000 462000 695000 759000
2020-07-21 13:00 12.56 378000 759000 (2019) 386000 (2016) 517000 386000 395000 462000 695000 759000
2020-07-21 12:00 12.53 377000 759000 (2019) 386000 (2016) 517000 386000 395000 462000 695000 759000
2020-07-21 11:00 12.60 378000 759000 (2019) 386000 (2016) 517000 386000 395000 462000 695000 759000
2020-07-21 10:00 12.60 378000 759000 (2019) 386000 (2016) 517000 386000 395000 462000 695000 759000
2020-07-21 09:00 12.57 378000 759000 (2019) 386000 (2016) 517000 386000 395000 462000 695000 759000
2020-07-21 08:00 12.57 378000 759000 (2019) 386000 (2016) 517000 386000 395000 462000 695000 759000
2020-07-21 07:00 12.57 378000 759000 (2019) 386000 (2016) 517000 386000 395000 462000 695000 759000
2020-07-21 06:00 12.55 377000 759000 (2019) 386000 (2016) 517000 386000 395000 462000 695000 759000
2020-07-21 05:00 12.53 377000 759000 (2019) 386000 (2016) 517000 386000 395000 462000 695000 759000
2020-07-21 04:00 12.55 377000 759000 (2019) 386000 (2016) 517000 386000 395000 462000 695000 759000
2020-07-21 03:00 12.58 378000 759000 (2019) 386000 (2016) 517000 386000 395000 462000 695000 759000
2020-07-21 02:00 12.59 378000 759000 (2019) 386000 (2016) 517000 386000 395000 462000 695000 759000
2020-07-21 01:00 12.61 379000 759000 (2019) 386000 (2016) 517000 386000 395000 462000 695000 759000
2020-07-21 00:00 12.67 380000 759000 (2019) 386000 (2016) 517000 386000 395000 462000 695000 759000
2020-07-20 23:00 12.75 382000 772000 (2019) 418000 (2016) 533000 418000 420000 470000 708000 772000
2020-07-20 22:00 12.74 381000 772000 (2019) 418000 (2016) 533000 418000 420000 470000 708000 772000
2020-07-20 21:00 12.88 385000 772000 (2019) 418000 (2016) 533000 418000 420000 470000 708000 772000
2020-07-20 20:00 12.95 386000 772000 (2019) 418000 (2016) 533000 418000 420000 470000 708000 772000
2020-07-20 19:00 12.87 384000 772000 (2019) 418000 (2016) 533000 418000 420000 470000 708000 772000
2020-07-20 18:00 12.45 375000 772000 (2019) 418000 (2016) 533000 418000 420000 470000 708000 772000
2020-07-20 17:00 12.89 385000 772000 (2019) 418000 (2016) 533000 418000 420000 470000 708000 772000
2020-07-20 16:00 12.89 385000 772000 (2019) 418000 (2016) 533000 418000 420000 470000 708000 772000
2020-07-20 15:00 12.83 383000 772000 (2019) 418000 (2016) 533000 418000 420000 470000 708000 772000
2020-07-20 14:00 12.82 383000 772000 (2019) 418000 (2016) 533000 418000 420000 470000 708000 772000
2020-07-20 13:00 12.53 377000 772000 (2019) 418000 (2016) 533000 418000 420000 470000 708000 772000
2020-07-20 12:00 12.68 380000 772000 (2019) 418000 (2016) 533000 418000 420000 470000 708000 772000
2020-07-20 11:00 12.73 381000 772000 (2019) 418000 (2016) 533000 418000 420000 470000 708000 772000
2020-07-20 10:00 12.46 375000 772000 (2019) 418000 (2016) 533000 418000 420000 470000 708000 772000
2020-07-20 09:00 12.66 380000 772000 (2019) 418000 (2016) 533000 418000 420000 470000 708000 772000
2020-07-20 08:00 12.71 381000 772000 (2019) 418000 (2016) 533000 418000 420000 470000 708000 772000
2020-07-20 07:00 12.62 379000 772000 (2019) 418000 (2016) 533000 418000 420000 470000 708000 772000
2020-07-20 06:00 12.55 377000 772000 (2019) 418000 (2016) 533000 418000 420000 470000 708000 772000
2020-07-20 05:00 12.47 376000 772000 (2019) 418000 (2016) 533000 418000 420000 470000 708000 772000
2020-07-20 04:00 12.41 374000 772000 (2019) 418000 (2016) 533000 418000 420000 470000 708000 772000
2020-07-20 03:00 12.34 373000 772000 (2019) 418000 (2016) 533000 418000 420000 470000 708000 772000
2020-07-20 02:00 12.28 372000 772000 (2019) 418000 (2016) 533000 418000 420000 470000 708000 772000
2020-07-20 01:00 12.22 370000 772000 (2019) 418000 (2016) 533000 418000 420000 470000 708000 772000
2020-07-20 00:00 12.22 370000 772000 (2019) 418000 (2016) 533000 418000 420000 470000 708000 772000
2020-07-19 23:00 12.02 366000 792000 (2019) 436000 (2018) 545000 436000 439000 476000 720000 792000
2020-07-19 22:00 12.14 369000 792000 (2019) 436000 (2018) 545000 436000 439000 476000 720000 792000
2020-07-19 21:00 12.18 369000 792000 (2019) 436000 (2018) 545000 436000 439000 476000 720000 792000
2020-07-19 20:00 12.18 369000 792000 (2019) 436000 (2018) 545000 436000 439000 476000 720000 792000
2020-07-19 19:00 12.19 370000 792000 (2019) 436000 (2018) 545000 436000 439000 476000 720000 792000
2020-07-19 18:00 11.99 365000 792000 (2019) 436000 (2018) 545000 436000 439000 476000 720000 792000
2020-07-19 17:00 12.22 370000 792000 (2019) 436000 (2018) 545000 436000 439000 476000 720000 792000
2020-07-19 16:00 12.30 372000 792000 (2019) 436000 (2018) 545000 436000 439000 476000 720000 792000
2020-07-19 15:00 11.96 365000 792000 (2019) 436000 (2018) 545000 436000 439000 476000 720000 792000
2020-07-19 14:00 12.24 371000 792000 (2019) 436000 (2018) 545000 436000 439000 476000 720000 792000
2020-07-19 13:00 12.25 371000 792000 (2019) 436000 (2018) 545000 436000 439000 476000 720000 792000
2020-07-19 12:00 12.27 371000 792000 (2019) 436000 (2018) 545000 436000 439000 476000 720000 792000
2020-07-19 11:00 12.06 367000 792000 (2019) 436000 (2018) 545000 436000 439000 476000 720000 792000
2020-07-19 10:00 12.11 368000 792000 (2019) 436000 (2018) 545000 436000 439000 476000 720000 792000
2020-07-19 09:00 12.27 371000 792000 (2019) 436000 (2018) 545000 436000 439000 476000 720000 792000
2020-07-19 08:00 12.45 375000 792000 (2019) 436000 (2018) 545000 436000 439000 476000 720000 792000
2020-07-19 07:00 12.41 374000 792000 (2019) 436000 (2018) 545000 436000 439000 476000 720000 792000
2020-07-19 06:00 12.52 377000 792000 (2019) 436000 (2018) 545000 436000 439000 476000 720000 792000
2020-07-19 05:00 12.51 377000 792000 (2019) 436000 (2018) 545000 436000 439000 476000 720000 792000
2020-07-19 04:00 12.53 377000 792000 (2019) 436000 (2018) 545000 436000 439000 476000 720000 792000
2020-07-19 03:00 12.56 378000 792000 (2019) 436000 (2018) 545000 436000 439000 476000 720000 792000
2020-07-19 02:00 12.54 377000 792000 (2019) 436000 (2018) 545000 436000 439000 476000 720000 792000
2020-07-19 01:00 12.55 377000 792000 (2019) 436000 (2018) 545000 436000 439000 476000 720000 792000
2020-07-19 00:00 12.55 377000 792000 (2019) 436000 (2018) 545000 436000 439000 476000 720000 792000
2020-07-18 23:00 12.57 378000 818000 (2019) 448000 (2018) 553000 448000 450000 472000 736000 818000
2020-07-18 22:00 12.60 378000 818000 (2019) 448000 (2018) 553000 448000 450000 472000 736000 818000
2020-07-18 21:00 12.61 379000 818000 (2019) 448000 (2018) 553000 448000 450000 472000 736000 818000
2020-07-18 20:00 12.64 379000 818000 (2019) 448000 (2018) 553000 448000 450000 472000 736000 818000
2020-07-18 19:00 12.69 380000 818000 (2019) 448000 (2018) 553000 448000 450000 472000 736000 818000
2020-07-18 18:00 12.61 379000 818000 (2019) 448000 (2018) 553000 448000 450000 472000 736000 818000
2020-07-18 17:00 12.78 382000 818000 (2019) 448000 (2018) 553000 448000 450000 472000 736000 818000
2020-07-18 16:00 12.76 382000 818000 (2019) 448000 (2018) 553000 448000 450000 472000 736000 818000
2020-07-18 15:00 12.81 383000 818000 (2019) 448000 (2018) 553000 448000 450000 472000 736000 818000
2020-07-18 14:00 12.68 380000 818000 (2019) 448000 (2018) 553000 448000 450000 472000 736000 818000
2020-07-18 13:00 12.86 384000 818000 (2019) 448000 (2018) 553000 448000 450000 472000 736000 818000
2020-07-18 12:00 12.92 385000 818000 (2019) 448000 (2018) 553000 448000 450000 472000 736000 818000
2020-07-18 11:00 12.96 386000 818000 (2019) 448000 (2018) 553000 448000 450000 472000 736000 818000
2020-07-18 10:00 12.98 387000 818000 (2019) 448000 (2018) 553000 448000 450000 472000 736000 818000
2020-07-18 09:00 13.02 388000 818000 (2019) 448000 (2018) 553000 448000 450000 472000 736000 818000
2020-07-18 08:00 13.02 388000 818000 (2019) 448000 (2018) 553000 448000 450000 472000 736000 818000
2020-07-18 07:00 13.06 388000 818000 (2019) 448000 (2018) 553000 448000 450000 472000 736000 818000
2020-07-18 06:00 12.77 382000 818000 (2019) 448000 (2018) 553000 448000 450000 472000 736000 818000
2020-07-18 05:00 13.03 388000 818000 (2019) 448000 (2018) 553000 448000 450000 472000 736000 818000
2020-07-18 04:00 12.99 387000 818000 (2019) 448000 (2018) 553000 448000 450000 472000 736000 818000
2020-07-18 03:00 13.05 388000 818000 (2019) 448000 (2018) 553000 448000 450000 472000 736000 818000
2020-07-18 02:00 12.95 386000 818000 (2019) 448000 (2018) 553000 448000 450000 472000 736000 818000
2020-07-18 01:00 13.09 389000 818000 (2019) 448000 (2018) 553000 448000 450000 472000 736000 818000
2020-07-18 00:00 13.12 390000 818000 (2019) 448000 (2018) 553000 448000 450000 472000 736000 818000
2020-07-17 23:00 13.07 389000 825000 (2019) 446000 (2018) 551000 446000 447000 467000 740000 825000
2020-07-17 22:00 12.99 387000 825000 (2019) 446000 (2018) 551000 446000 447000 467000 740000 825000
2020-07-17 21:00 13.18 391000 825000 (2019) 446000 (2018) 551000 446000 447000 467000 740000 825000
2020-07-17 20:00 12.67 380000 825000 (2019) 446000 (2018) 551000 446000 447000 467000 740000 825000
2020-07-17 19:00 13.20 392000 825000 (2019) 446000 (2018) 551000 446000 447000 467000 740000 825000
2020-07-17 18:00 13.03 388000 825000 (2019) 446000 (2018) 551000 446000 447000 467000 740000 825000
2020-07-17 17:00 13.26 393000 825000 (2019) 446000 (2018) 551000 446000 447000 467000 740000 825000
2020-07-17 16:00 13.32 394000 825000 (2019) 446000 (2018) 551000 446000 447000 467000 740000 825000
2020-07-17 15:00 13.36 395000 825000 (2019) 446000 (2018) 551000 446000 447000 467000 740000 825000
2020-07-17 14:00 13.38 396000 825000 (2019) 446000 (2018) 551000 446000 447000 467000 740000 825000
2020-07-17 13:00 12.39 374000 825000 (2019) 446000 (2018) 551000 446000 447000 467000 740000 825000
2020-07-17 12:00 13.41 396000 825000 (2019) 446000 (2018) 551000 446000 447000 467000 740000 825000
2020-07-17 11:00 13.39 396000 825000 (2019) 446000 (2018) 551000 446000 447000 467000 740000 825000
2020-07-17 10:00 13.35 395000 825000 (2019) 446000 (2018) 551000 446000 447000 467000 740000 825000
2020-07-17 09:00 13.28 393000 825000 (2019) 446000 (2018) 551000 446000 447000 467000 740000 825000
2020-07-17 08:00 13.35 395000 825000 (2019) 446000 (2018) 551000 446000 447000 467000 740000 825000
2020-07-17 07:00 13.37 395000 825000 (2019) 446000 (2018) 551000 446000 447000 467000 740000 825000
2020-07-17 06:00 13.44 397000 825000 (2019) 446000 (2018) 551000 446000 447000 467000 740000 825000
2020-07-17 05:00 13.46 397000 825000 (2019) 446000 (2018) 551000 446000 447000 467000 740000 825000
2020-07-17 04:00 13.42 396000 825000 (2019) 446000 (2018) 551000 446000 447000 467000 740000 825000
2020-07-17 03:00 13.42 396000 825000 (2019) 446000 (2018) 551000 446000 447000 467000 740000 825000
2020-07-17 02:00 13.42 396000 825000 (2019) 446000 (2018) 551000 446000 447000 467000 740000 825000
2020-07-17 01:00 13.43 397000 825000 (2019) 446000 (2018) 551000 446000 447000 467000 740000 825000
2020-07-17 00:00 13.41 396000 825000 (2019) 446000 (2018) 551000 446000 447000 467000 740000 825000
2020-07-16 23:00 13.44 397000 832000 (2019) 457000 (2018) 560000 457000 460000 475000 745000 832000
2020-07-16 22:00 13.44 397000 832000 (2019) 457000 (2018) 560000 457000 460000 475000 745000 832000
2020-07-16 21:00 13.46 397000 832000 (2019) 457000 (2018) 560000 457000 460000 475000 745000 832000
2020-07-16 20:00 13.34 395000 832000 (2019) 457000 (2018) 560000 457000 460000 475000 745000 832000
2020-07-16 19:00 13.44 397000 832000 (2019) 457000 (2018) 560000 457000 460000 475000 745000 832000
2020-07-16 18:00 13.43 397000 832000 (2019) 457000 (2018) 560000 457000 460000 475000 745000 832000
2020-07-16 17:00 13.44 397000 832000 (2019) 457000 (2018) 560000 457000 460000 475000 745000 832000
2020-07-16 16:00 13.66 402000 832000 (2019) 457000 (2018) 560000 457000 460000 475000 745000 832000
2020-07-16 15:00 13.68 402000 832000 (2019) 457000 (2018) 560000 457000 460000 475000 745000 832000
2020-07-16 14:00 13.78 404000 832000 (2019) 457000 (2018) 560000 457000 460000 475000 745000 832000
2020-07-16 13:00 13.78 404000 832000 (2019) 457000 (2018) 560000 457000 460000 475000 745000 832000
2020-07-16 12:00 13.68 402000 832000 (2019) 457000 (2018) 560000 457000 460000 475000 745000 832000
2020-07-16 11:00 13.88 407000 832000 (2019) 457000 (2018) 560000 457000 460000 475000 745000 832000
2020-07-16 10:00 13.90 407000 832000 (2019) 457000 (2018) 560000 457000 460000 475000 745000 832000
2020-07-16 09:00 13.93 408000 832000 (2019) 457000 (2018) 560000 457000 460000 475000 745000 832000
2020-07-16 08:00 13.94 408000 832000 (2019) 457000 (2018) 560000 457000 460000 475000 745000 832000
2020-07-16 07:00 13.97 409000 832000 (2019) 457000 (2018) 560000 457000 460000 475000 745000 832000
2020-07-16 06:00 13.95 408000 832000 (2019) 457000 (2018) 560000 457000 460000 475000 745000 832000
2020-07-16 05:00 13.99 409000 832000 (2019) 457000 (2018) 560000 457000 460000 475000 745000 832000
2020-07-16 04:00 13.98 409000 832000 (2019) 457000 (2018) 560000 457000 460000 475000 745000 832000
2020-07-16 03:00 14.03 410000 832000 (2019) 457000 (2018) 560000 457000 460000 475000 745000 832000
2020-07-16 02:00 13.86 406000 832000 (2019) 457000 (2018) 560000 457000 460000 475000 745000 832000
2020-07-16 01:00 13.79 405000 832000 (2019) 457000 (2018) 560000 457000 460000 475000 745000 832000
2020-07-16 00:00 13.96 408000 832000 (2019) 457000 (2018) 560000 457000 460000 475000 745000 832000
2020-07-15 23:00 13.95 408000 854000 (2019) 476000 (2018) 584000 476000 479000 502000 769000 854000
2020-07-15 22:00 13.74 404000 854000 (2019) 476000 (2018) 584000 476000 479000 502000 769000 854000
2020-07-15 21:00 13.92 408000 854000 (2019) 476000 (2018) 584000 476000 479000 502000 769000 854000
2020-07-15 20:00 14.08 411000 854000 (2019) 476000 (2018) 584000 476000 479000 502000 769000 854000
2020-07-15 19:00 13.92 408000 854000 (2019) 476000 (2018) 584000 476000 479000 502000 769000 854000
2020-07-15 18:00 13.96 408000 854000 (2019) 476000 (2018) 584000 476000 479000 502000 769000 854000
2020-07-15 17:00 13.86 406000 854000 (2019) 476000 (2018) 584000 476000 479000 502000 769000 854000
2020-07-15 16:00 14.18 413000 854000 (2019) 476000 (2018) 584000 476000 479000 502000 769000 854000
2020-07-15 15:00 14.21 414000 854000 (2019) 476000 (2018) 584000 476000 479000 502000 769000 854000
2020-07-15 14:00 14.24 415000 854000 (2019) 476000 (2018) 584000 476000 479000 502000 769000 854000
2020-07-15 13:00 14.23 415000 854000 (2019) 476000 (2018) 584000 476000 479000 502000 769000 854000
2020-07-15 12:00 14.25 415000 854000 (2019) 476000 (2018) 584000 476000 479000 502000 769000 854000
2020-07-15 11:00 14.38 418000 854000 (2019) 476000 (2018) 584000 476000 479000 502000 769000 854000
2020-07-15 10:00 14.41 419000 854000 (2019) 476000 (2018) 584000 476000 479000 502000 769000 854000
2020-07-15 09:00 14.45 420000 854000 (2019) 476000 (2018) 584000 476000 479000 502000 769000 854000
2020-07-15 08:00 14.42 419000 854000 (2019) 476000 (2018) 584000 476000 479000 502000 769000 854000
2020-07-15 07:00 14.46 420000 854000 (2019) 476000 (2018) 584000 476000 479000 502000 769000 854000
2020-07-15 06:00 14.50 421000 854000 (2019) 476000 (2018) 584000 476000 479000 502000 769000 854000
2020-07-15 05:00 14.49 421000 854000 (2019) 476000 (2018) 584000 476000 479000 502000 769000 854000
2020-07-15 04:00 14.54 422000 854000 (2019) 476000 (2018) 584000 476000 479000 502000 769000 854000
2020-07-15 03:00 14.54 422000 854000 (2019) 476000 (2018) 584000 476000 479000 502000 769000 854000
2020-07-15 02:00 14.58 423000 854000 (2019) 476000 (2018) 584000 476000 479000 502000 769000 854000
2020-07-15 01:00 14.48 420000 854000 (2019) 476000 (2018) 584000 476000 479000 502000 769000 854000
2020-07-15 00:00 14.37 418000 854000 (2019) 476000 (2018) 584000 476000 479000 502000 769000 854000
2020-07-14 23:00 14.46 420000 880000 (2019) 492000 (2018) 610000 492000 497000 534000 799000 880000
2020-07-14 22:00 14.50 421000 880000 (2019) 492000 (2018) 610000 492000 497000 534000 799000 880000
2020-07-14 21:00 14.60 423000 880000 (2019) 492000 (2018) 610000 492000 497000 534000 799000 880000
2020-07-14 20:00 14.51 421000 880000 (2019) 492000 (2018) 610000 492000 497000 534000 799000 880000
2020-07-14 19:00 14.49 421000 880000 (2019) 492000 (2018) 610000 492000 497000 534000 799000 880000
2020-07-14 18:00 14.52 421000 880000 (2019) 492000 (2018) 610000 492000 497000 534000 799000 880000
2020-07-14 17:00 14.25 415000 880000 (2019) 492000 (2018) 610000 492000 497000 534000 799000 880000
2020-07-14 16:00 14.39 418000 880000 (2019) 492000 (2018) 610000 492000 497000 534000 799000 880000
2020-07-14 15:00 14.69 425000 880000 (2019) 492000 (2018) 610000 492000 497000 534000 799000 880000
2020-07-14 13:00 14.56 422000 880000 (2019) 492000 (2018) 610000 492000 497000 534000 799000 880000
2020-07-14 12:00 14.39 418000 880000 (2019) 492000 (2018) 610000 492000 497000 534000 799000 880000
2020-07-14 11:00 14.65 424000 880000 (2019) 492000 (2018) 610000 492000 497000 534000 799000 880000
2020-07-14 10:00 14.83 428000 880000 (2019) 492000 (2018) 610000 492000 497000 534000 799000 880000
2020-07-14 09:00 14.79 427000 880000 (2019) 492000 (2018) 610000 492000 497000 534000 799000 880000
2020-07-14 08:00 14.80 428000 880000 (2019) 492000 (2018) 610000 492000 497000 534000 799000 880000
2020-07-14 07:00 14.89 430000 880000 (2019) 492000 (2018) 610000 492000 497000 534000 799000 880000
2020-07-14 06:00 14.88 429000 880000 (2019) 492000 (2018) 610000 492000 497000 534000 799000 880000
2020-07-14 05:00 14.92 430000 880000 (2019) 492000 (2018) 610000 492000 497000 534000 799000 880000
2020-07-14 04:00 14.92 430000 880000 (2019) 492000 (2018) 610000 492000 497000 534000 799000 880000
2020-07-14 03:00 14.88 429000 880000 (2019) 492000 (2018) 610000 492000 497000 534000 799000 880000
2020-07-14 02:00 14.50 421000 880000 (2019) 492000 (2018) 610000 492000 497000 534000 799000 880000
2020-07-14 01:00 14.77 427000 880000 (2019) 492000 (2018) 610000 492000 497000 534000 799000 880000
2020-07-14 00:00 14.78 427000 880000 (2019) 492000 (2018) 610000 492000 497000 534000 799000 880000
2020-07-13 23:00 14.83 428000 908000 (2019) 517000 (2018) 642000 517000 525000 572000 830000 908000
2020-07-13 22:00 14.83 428000 908000 (2019) 517000 (2018) 642000 517000 525000 572000 830000 908000
2020-07-13 21:00 14.78 427000 908000 (2019) 517000 (2018) 642000 517000 525000 572000 830000 908000
2020-07-13 20:00 14.78 427000 908000 (2019) 517000 (2018) 642000 517000 525000 572000 830000 908000
2020-07-13 19:00 14.71 426000 908000 (2019) 517000 (2018) 642000 517000 525000 572000 830000 908000
2020-07-13 18:00 14.65 424000 908000 (2019) 517000 (2018) 642000 517000 525000 572000 830000 908000
2020-07-13 17:00 14.50 421000 908000 (2019) 517000 (2018) 642000 517000 525000 572000 830000 908000
2020-07-13 16:00 14.31 416000 908000 (2019) 517000 (2018) 642000 517000 525000 572000 830000 908000
2020-07-13 15:00 14.48 420000 908000 (2019) 517000 (2018) 642000 517000 525000 572000 830000 908000
2020-07-13 14:00 14.07 411000 908000 (2019) 517000 (2018) 642000 517000 525000 572000 830000 908000
2020-07-13 13:00 14.36 418000 908000 (2019) 517000 (2018) 642000 517000 525000 572000 830000 908000
2020-07-13 12:00 14.31 416000 908000 (2019) 517000 (2018) 642000 517000 525000 572000 830000 908000
2020-07-13 11:00 14.25 415000 908000 (2019) 517000 (2018) 642000 517000 525000 572000 830000 908000
2020-07-13 10:00 14.19 414000 908000 (2019) 517000 (2018) 642000 517000 525000 572000 830000 908000
2020-07-13 09:00 14.16 413000 908000 (2019) 517000 (2018) 642000 517000 525000 572000 830000 908000
2020-07-13 08:00 14.09 411000 908000 (2019) 517000 (2018) 642000 517000 525000 572000 830000 908000
2020-07-13 07:00 14.04 410000 908000 (2019) 517000 (2018) 642000 517000 525000 572000 830000 908000
2020-07-13 06:00 13.98 409000 908000 (2019) 517000 (2018) 642000 517000 525000 572000 830000 908000
2020-07-13 05:00 13.93 408000 908000 (2019) 517000 (2018) 642000 517000 525000 572000 830000 908000
2020-07-13 04:00 13.89 407000 908000 (2019) 517000 (2018) 642000 517000 525000 572000 830000 908000
2020-07-13 03:00 13.84 406000 908000 (2019) 517000 (2018) 642000 517000 525000 572000 830000 908000
2020-07-13 02:00 13.82 405000 908000 (2019) 517000 (2018) 642000 517000 525000 572000 830000 908000
2020-07-13 01:00 13.81 405000 908000 (2019) 517000 (2018) 642000 517000 525000 572000 830000 908000
2020-07-13 00:00 13.81 405000 908000 (2019) 517000 (2018) 642000 517000 525000 572000 830000 908000
2020-07-12 23:00 13.79 405000 931000 (2019) 550000 (2018) 678000 550000 560000 616000 859000 931000
2020-07-12 22:00 13.83 406000 931000 (2019) 550000 (2018) 678000 550000 560000 616000 859000 931000
2020-07-12 21:00 13.83 406000 931000 (2019) 550000 (2018) 678000 550000 560000 616000 859000 931000
2020-07-12 20:00 13.85 406000 931000 (2019) 550000 (2018) 678000 550000 560000 616000 859000 931000
2020-07-12 19:00 13.84 406000 931000 (2019) 550000 (2018) 678000 550000 560000 616000 859000 931000
2020-07-12 18:00 13.90 407000 931000 (2019) 550000 (2018) 678000 550000 560000 616000 859000 931000
2020-07-12 17:00 13.91 407000 931000 (2019) 550000 (2018) 678000 550000 560000 616000 859000 931000
2020-07-12 16:00 13.96 408000 931000 (2019) 550000 (2018) 678000 550000 560000 616000 859000 931000
2020-07-12 15:00 13.99 409000 931000 (2019) 550000 (2018) 678000 550000 560000 616000 859000 931000
2020-07-12 14:00 14.03 410000 931000 (2019) 550000 (2018) 678000 550000 560000 616000 859000 931000
2020-07-12 13:00 13.63 401000 931000 (2019) 550000 (2018) 678000 550000 560000 616000 859000 931000
2020-07-12 12:00 14.02 410000 931000 (2019) 550000 (2018) 678000 550000 560000 616000 859000 931000
2020-07-12 11:00 14.12 412000 931000 (2019) 550000 (2018) 678000 550000 560000 616000 859000 931000
2020-07-12 09:00 13.89 407000 931000 (2019) 550000 (2018) 678000 550000 560000 616000 859000 931000
2020-07-12 08:00 13.89 407000 931000 (2019) 550000 (2018) 678000 550000 560000 616000 859000 931000
2020-07-12 07:00 13.80 405000 931000 (2019) 550000 (2018) 678000 550000 560000 616000 859000 931000
2020-07-12 06:00 13.96 408000 931000 (2019) 550000 (2018) 678000 550000 560000 616000 859000 931000
2020-07-12 05:00 13.74 404000 931000 (2019) 550000 (2018) 678000 550000 560000 616000 859000 931000
2020-07-12 04:00 13.58 400000 931000 (2019) 550000 (2018) 678000 550000 560000 616000 859000 931000
2020-07-12 03:00 13.85 406000 931000 (2019) 550000 (2018) 678000 550000 560000 616000 859000 931000
2020-07-12 02:00 13.84 406000 931000 (2019) 550000 (2018) 678000 550000 560000 616000 859000 931000
2020-07-12 01:00 13.84 406000 931000 (2019) 550000 (2018) 678000 550000 560000 616000 859000 931000
2020-07-12 00:00 13.83 406000 931000 (2019) 550000 (2018) 678000 550000 560000 616000 859000 931000

A total of 738 rows are displayed for years 2016 through 2019.